James Clark Ross — ZDLP — position and weather

sailwx.info

Track history (hours):
 
Tides and Currents Weather Stations Pressure Air Temp Water Temp Dewpoint Dewpoint Depression Visibility Wind Speed Wind Dir Waves Ship Positions

Oceanographic research ship James Clark Ross (UK)

Detailed information on ship capabilities available from University of Delaware's Ocean Information Center and ARCUS's ALIAS (Arctic Logistics Information and Support) project.

Last reported at 2014-Nov-23 09:00 UTC. Time now 2014-Nov-23 16:44 UTC.
Position S 60°42' W 045°30'.

Length 99 m; beam 18.8 m; draft 6.3 m.

Type: Ship. MMSI: 740339000.

AWS

Barometer 985.9 mb
Air temperature -2.9 ° C
Dewpoint 0.2 ° C

Date/timePositionNaut miles runAvg speedWind from/ knotsBaromVisibWave heightAir tempDewpointWater temp
2014-Nov-23 09:00S 60°42' W 045°30'0 0.0 985.9 -2.9 0.2
2014-Nov-23 08:00S 60°42' W 045°30'0 0.0 985.6 -3.4 0.2
2014-Nov-23 07:00S 60°42' W 045°30'0 0.0 985.6 -3.2-0.0
2014-Nov-23 06:00S 60°42' W 045°30'0 0.0 985.6 -3.4 0.2
2014-Nov-23 05:00S 60°42' W 045°30'3 0.4 985.7 -3.1-0.8
2014-Nov-22 21:00S 60°42' W 045°36'0 0.0 984.5 -3.3-0.4
2014-Nov-22 20:00S 60°42' W 045°36'0 0.0 984.4 -2.1-2.0
2014-Nov-22 18:00S 60°42' W 045°36'0 0.0 984.4 -3.2-1.8
2014-Nov-22 16:00S 60°42' W 045°36'0 0.0 983.5 -0.9-4.0
2014-Nov-22 15:00S 60°42' W 045°36'0 0.0 982.6 -4.1-0.4
2014-Nov-22 14:00S 60°42' W 045°36'0 0.0 982.0 -3.5-1.9
2014-Nov-22 13:00S 60°42' W 045°36'0 0.0 981.0 -3.1-2.0
2014-Nov-22 12:00S 60°42' W 045°36'0 0.0 980.2 -3.2 0.2
2014-Nov-22 11:00S 60°42' W 045°36'0 0.0 978.1 -2.3-0.2
2014-Nov-22 10:00S 60°42' W 045°36'3 1.5 975.7 -0.5-1.9
2014-Nov-22 08:00S 60°42' W 045°30'0 0.0 974.2 -0.1-2.8
2014-Nov-22 06:00S 60°42' W 045°30'0 0.0 973.7 -0.3-2.0
2014-Nov-22 05:00S 60°42' W 045°30'0 0.0 973.1 -0.3-2.1
2014-Nov-22 04:00S 60°42' W 045°30'0 0.0 972.9 -2.2
2014-Nov-22 03:00S 60°42' W 045°30'0 0.0 973.4 0.1-2.2
2014-Nov-22 02:00S 60°42' W 045°30'0 0.0 973.4 0.4-2.1
2014-Nov-22 01:00S 60°42' W 045°30'0 0.0 974.3 0.5-2.5
2014-Nov-22 00:00S 60°42' W 045°30'0 0.0 975.4 -0.5-0.7
2014-Nov-21 22:00S 60°42' W 045°30'3 2.9 976.3 -0.2-0.9
2014-Nov-21 21:00S 60°42' W 045°36'0 0.0 976.8 -0.2-0.8
2014-Nov-21 20:00S 60°42' W 045°36'0 0.0 977.1 -0.2-1.0
2014-Nov-21 19:00S 60°42' W 045°36'0 0.0 977.0 0.2-0.9
2014-Nov-21 18:00S 60°42' W 045°36'0 0.0 977.4 0.1-1.1
2014-Nov-21 17:00S 60°42' W 045°36'0 0.0 977.2 0.3-1.1
2014-Nov-21 16:00S 60°42' W 045°36'0 0.0 977.0 0.4-1.5
2014-Nov-21 12:00S 60°42' W 045°36'0 0.0 975.7 0.1-1.3
2014-Nov-21 11:00S 60°42' W 045°36'0 0.0 974.9 0.1-1.0
2014-Nov-21 10:00S 60°42' W 045°36'3 2.9 974.3 0.1-1.1
2014-Nov-21 09:00S 60°42' W 045°30'0 0.0 972.9 0.6-0.8
2014-Nov-21 08:00S 60°42' W 045°30'0 0.0 972.8 0.8-0.7
2014-Nov-21 07:00S 60°42' W 045°30'0 0.0 972.9 0.9-0.9
2014-Nov-21 06:00S 60°42' W 045°30'0 0.0 310 / 32972.8 1.1 0.9 -0.1
2014-Nov-21 05:00S 60°42' W 045°30'0 0.0 973.8 0.8-1.0
2014-Nov-21 03:00S 60°42' W 045°30'0 0.0 975.0 0.4-2.0
2014-Nov-21 02:00S 60°42' W 045°30'0 0.0 974.4 0.3-2.0
2014-Nov-21 01:00S 60°42' W 045°30'0 0.0 974.0 0.5-2.0
2014-Nov-21 00:00S 60°42' W 045°30'0 0.0 974.0 0.7-1.6
2014-Nov-20 23:00S 60°42' W 045°30'0 0.0 973.4 0.9-0.9
2014-Nov-20 20:00S 60°42' W 045°30'0 0.0 974.8 2.0-1.9
2014-Nov-20 19:00S 60°42' W 045°30'0 0.0 977.1 2.4-1.5
2014-Nov-20 18:00S 60°42' W 045°30'3 2.9 320 / 26979.6 1.1 1.8 1.3-0.1
2014-Nov-20 17:00S 60°42' W 045°36'0 0.0 981.6 2.1-1.3
2014-Nov-20 16:00S 60°42' W 045°36'0 0.0 984.5 1.5-1.7
2014-Nov-20 15:00S 60°42' W 045°36'0 0.0 986.0 1.0-2.1
2014-Nov-20 14:00S 60°42' W 045°36'0 0.0 987.0 0.7-2.8
2014-Nov-20 10:00S 60°42' W 045°36'3 2.9 989.6 -1.6-2.7
2014-Nov-20 09:00S 60°42' W 045°30'0 0.0 989.4 -1.8-2.9
2014-Nov-20 08:00S 60°42' W 045°30'0 0.0 989.3 -1.7-2.8
2014-Nov-20 07:00S 60°42' W 045°30'0 0.0 988.7 -2.2-1.8
2014-Nov-20 06:00S 60°42' W 045°30'0 0.0 290 / 30988.8 2.2 -1.8 -0.0
2014-Nov-20 05:00S 60°42' W 045°30'0 0.0 988.5 -2.1-1.4
2014-Nov-20 04:00S 60°42' W 045°30'0 0.0 988.4 -2.7-0.4
2014-Nov-20 02:00S 60°42' W 045°30'0 0.0 988.3 -2.0-3.0
2014-Nov-20 01:00S 60°42' W 045°30'0 0.0 987.9 -2.3-1.5
2014-Nov-19 23:00S 60°42' W 045°30'3 1.5 988.1 -3.0-1.8
2014-Nov-19 21:00S 60°42' W 045°36'0 0.0 988.0 -5.2-0.6
2014-Nov-19 20:00S 60°42' W 045°36'0 0.0 986.9 -5.6-0.7
2014-Nov-19 19:00S 60°42' W 045°36'3 2.9 985.3 -5.7-0.0
2014-Nov-19 18:00S 60°42' W 045°30'3 2.9 260 / 20984.410.8 -5.7-7.2 0.1
2014-Nov-19 17:00S 60°42' W 045°36'0 0.0 982.8 -5.2-0.1
2014-Nov-19 15:00S 60°42' W 045°36'3 2.9 980.3 -3.7-2.1
2014-Nov-19 14:00S 60°42' W 045°42'1110.6 980.0 -2.9-2.4
2014-Nov-19 13:00S 60°48' W 046°00'1514.6 979.1 -4.6-0.3
2014-Nov-19 12:00S 60°48' W 046°30'7 6.7 978.5 -5.1 0.5
2014-Nov-19 11:00S 60°42' W 046°36'16 7.9 977.8 -3.5-1.2
2014-Nov-19 09:00S 60°36' W 047°06'30 9.9 976.5 -2.7-0.9
2014-Nov-19 06:00S 60°18' W 047°54'2210.8 320 / 16974.7 5.4 0.5-1.4-0.0
2014-Nov-19 04:00S 60°06' W 048°30'2210.8 973.8 -0.2-3.5
2014-Nov-19 02:00S 59°54' W 049°06'1110.9 972.9 0.2-3.6
2014-Nov-19 01:00S 59°48' W 049°24'9 8.5 972.4 0.4-3.5
2014-Nov-19 00:00S 59°42' W 049°36'2412.2 971.6 0.3-2.9
2014-Nov-18 22:00S 59°30' W 050°18'1110.9 970.7 1.3-2.0
2014-Nov-18 21:00S 59°24' W 050°36'1111.0 970.2 2.4-1.1
2014-Nov-18 20:00S 59°18' W 050°54'2512.3 969.8 2.7-0.9
2014-Nov-18 18:00S 59°06' W 051°36'9 8.6 968.9 2.8-1.0
2014-Nov-18 17:00S 59°00' W 051°48'14 6.9 968.2 1.9-1.0
2014-Nov-18 15:00S 58°54' W 052°12'2613.0 968.2 4.3-0.2
2014-Nov-18 13:00S 58°36' W 052°48'1111.1 968.3 3.5-0.1
2014-Nov-18 12:00S 58°30' W 053°06'1111.2 968.6 3.9 0.4
2014-Nov-18 11:00S 58°24' W 053°24'1111.2 968.5 4.1 0.9
2014-Nov-18 10:00S 58°18' W 053°42'1111.2 968.5 3.8 1.0
2014-Nov-18 09:00S 58°12' W 054°00'1414.0 968.6 2.9 0.9
2014-Nov-18 08:00S 58°06' W 054°24'1111.3 968.9 3.5 1.2
2014-Nov-18 07:00S 58°00' W 054°42'1413.6 968.4 3.6 2.2
2014-Nov-18 06:00S 57°48' W 054°54'1414.1 330 / 18968.6 5.4 3.1 3.1 2.8
2014-Nov-18 05:00S 57°42' W 055°18'2612.8 969.4 2.5 1.2
2014-Nov-18 03:00S 57°30' W 056°00'1111.4 970.2 3.4 1.5
2014-Nov-18 02:00S 57°24' W 056°18'1515.4 970.8 3.8 1.7
2014-Nov-18 01:00S 57°12' W 056°36'1111.5 971.9 4.7 2.2
2014-Nov-18 00:00S 57°06' W 056°54'1111.5 972.7 5.2 2.9
2014-Nov-17 23:00S 57°00' W 057°12'1414.4 972.8 5.3 3.2
2014-Nov-17 22:00S 56°54' W 057°36'1211.5 973.6 5.7 3.5
2014-Nov-17 21:00S 56°48' W 057°54'12 5.8 974.7 5.7 3.4
2014-Nov-17 19:00S 56°42' W 058°12'6 6.0 975.2 6.2 3.5
2014-Nov-17 18:00S 56°36' W 058°12'1514.5 340 / 22976.310.8 6.0 4.4 4.6
2014-Nov-17 17:00S 56°30' W 058°36'1211.6 977.5 7.7 3.1
2014-Nov-17 16:00S 56°24' W 058°54'1211.6 978.2 8.4 3.2
2014-Nov-17 15:00S 56°18' W 059°12'1211.7 978.3 7.9 2.9
2014-Nov-17 14:00S 56°12' W 059°30'2512.3 978.6 7.2 2.5
2014-Nov-17 12:00S 55°54' W 060°00'2613.2 270 / 28978.910.8 7.8 4.1 5.7
2014-Nov-17 10:00S 55°42' W 060°42'1514.8 979.6 6.4 2.7
2014-Nov-17 09:00S 55°36' W 061°06'1615.7 980.0 6.5 3.5
2014-Nov-17 08:00S 55°24' W 061°24'1211.9 980.0 6.5 3.8
2014-Nov-17 07:00S 55°18' W 061°42'9 9.1 980.0 6.2 4.0
2014-Nov-17 06:00S 55°12' W 061°54'1515.0 330 / 21980.010.8 6.6 5.2 4.7
2014-Nov-17 05:00S 55°06' W 062°18'3015.0 981.3 7.9 4.0
2014-Nov-17 03:00S 54°48' W 063°00'2110.5 983.7 7.9 4.4
2014-Nov-17 01:00S 54°36' W 063°30'1615.9 986.7 8.4 4.9
2014-Nov-17 00:00S 54°24' W 063°48'1515.2 340 / 31987.9 5.4 8.1 4.2 7.1
2014-Nov-16 23:00S 54°18' W 064°12'1212.1 989.9 7.8 1.9
2014-Nov-16 22:00S 54°12' W 064°30'1212.1 991.4 8.2 2.3
2014-Nov-16 21:00S 54°06' W 064°48'1212.2 992.9 8.7 2.6
2014-Nov-16 20:00S 54°00' W 065°06'9 9.3 993.6 10.2 2.9
2014-Nov-16 19:00S 53°54' W 065°18'1413.9 995.4 10.6 2.6
2014-Nov-16 18:00S 53°42' W 065°30'1414.2 330 / 24996.310.8 9.1 6.5 7.3
2014-Nov-16 17:00S 53°42' W 065°54'1414.0 997.9 9.9 2.8
2014-Nov-16 16:00S 53°30' W 066°06'173 8.2 999.2 11.3 3.1
2014-Nov-15 19:00S 52°54' W 070°48'0 0.0 1008.5 9.3-4.0
2014-Nov-15 18:00S 52°54' W 070°48'0 0.0 1008.9 8.5-3.9
2014-Nov-15 17:00S 52°54' W 070°48'0 0.0 1009.1 8.8-4.0
2014-Nov-15 16:00S 52°54' W 070°48'0 0.0 1008.9 8.5-3.0
2014-Nov-15 14:00S 52°54' W 070°48'0 0.0 1008.2 7.4-3.1
2014-Nov-15 13:00S 52°54' W 070°48'7 7.0 1008.2 7.3-3.3
2014-Nov-15 12:00S 53°00' W 070°42'7 7.0 1007.1 5.5-2.8
2014-Nov-15 11:00S 53°06' W 070°48'7 3.5 1006.9 4.9-2.9
2014-Nov-15 09:00S 53°12' W 070°54'0 0.0 1006.1 3.6-4.6
2014-Nov-15 08:00S 53°12' W 070°54'0 0.0 1005.5 3.4-4.0
2014-Nov-15 07:00S 53°12' W 070°54'0 0.0 1004.9 3.4-2.6
2014-Nov-15 06:00S 53°12' W 070°54'0 0.0 1004.5 4.1-2.7
2014-Nov-15 03:00S 53°12' W 070°54'0 0.0 1002.8 4.7-2.3
2014-Nov-15 02:00S 53°12' W 070°54'0 0.0 1001.7 4.5-1.7
2014-Nov-15 01:00S 53°12' W 070°54'0 0.0 1000.4 4.9-0.9
2014-Nov-15 00:00S 53°12' W 070°54'0 0.0 998.8 5.6-1.5
2014-Nov-14 23:00S 53°12' W 070°54'0 0.0 997.1 6.5 0.2
2014-Nov-14 22:00S 53°12' W 070°54'0 0.0 995.6 8.1-0.8
2014-Nov-14 21:00S 53°12' W 070°54'0 0.0 994.1 9.6-3.4
2014-Nov-14 18:00S 53°12' W 070°54'0 0.0 992.0 9.3 2.8
2014-Nov-14 17:00S 53°12' W 070°54'0 0.0 991.3 8.5 3.2
2014-Nov-14 16:00S 53°12' W 070°54'0 0.0 989.7 9.7 2.4
2014-Nov-14 13:00S 53°12' W 070°54'0 0.0 987.9 8.9 3.0
2014-Nov-14 12:00S 53°12' W 070°54'0 0.0 987.8 8.5 3.3
2014-Nov-14 11:00S 53°12' W 070°54'0 0.0 987.1 8.4 4.0
2014-Nov-14 10:00S 53°12' W 070°54'0 0.0 986.2 8.1 4.6
2014-Nov-14 09:00S 53°12' W 070°54'0 0.0 985.9 6.5 4.6
2014-Nov-14 08:00S 53°12' W 070°54'0 0.0 985.8 6.2 4.7
2014-Nov-14 06:00S 53°12' W 070°54'0 0.0 984.1 9.2 5.8
2014-Nov-14 05:00S 53°12' W 070°54'0 0.0 983.9 9.0 5.6
2014-Nov-14 04:00S 53°12' W 070°54'0 0.0 983.7 9.4 5.4
2014-Nov-14 03:00S 53°12' W 070°54'0 0.0 983.7 8.9 5.2
2014-Nov-14 01:00S 53°12' W 070°54'0 0.0 983.9 8.2 4.8
2014-Nov-14 00:00S 53°12' W 070°54'0 0.0 985.4 9.6 4.8
2014-Nov-13 23:00S 53°12' W 070°54'0 0.0 986.4 9.7 4.8
2014-Nov-13 22:00S 53°12' W 070°54'0 0.0 987.5 11.4 6.0
2014-Nov-13 21:00S 53°12' W 070°54'0 0.0 988.8 10.5 5.5
2014-Nov-13 20:00S 53°12' W 070°54'0 0.0 989.2 12.5 4.2
2014-Nov-13 19:00S 53°12' W 070°54'0 0.0 989.5 12.7 3.8
2014-Nov-13 18:00S 53°12' W 070°54'0 0.0 989.5 13.4 3.6
2014-Nov-13 16:00S 53°12' W 070°54'0 0.0 990.6 12.1 3.5
2014-Nov-13 15:00S 53°12' W 070°54'0 0.0 990.7 12.0 3.7
2014-Nov-13 14:00S 53°12' W 070°54'0 0.0 990.4 11.5 4.1
2014-Nov-13 13:00S 53°12' W 070°54'0 0.0 990.5 10.7 4.3
2014-Nov-13 12:00S 53°12' W 070°54'0 0.0 990.3 10.6 4.6
2014-Nov-13 10:00S 53°12' W 070°54'0 0.0 989.7 8.6 4.0
2014-Nov-13 09:00S 53°12' W 070°54'   989.5 7.9 4.1
Track history (hours):
 
Tides and Currents Weather Stations Pressure Air Temp Water Temp Dewpoint Dewpoint Depression Visibility Wind Speed Wind Dir Waves Ship Positions

Oceanographic research ship James Clark Ross (UK)

Detailed information on ship capabilities available from University of Delaware's Ocean Information Center and ARCUS's ALIAS (Arctic Logistics Information and Support) project.

Last reported at 2014-Nov-23 09:00 UTC. Time now 2014-Nov-23 16:44 UTC.
Position S 60°42' W 045°30'.

Length 99 m; beam 18.8 m; draft 6.3 m.

Type: Ship. MMSI: 740339000.

AWS

Barometer 985.9 mb
Air temperature -2.9 ° C
Dewpoint 0.2 ° C

Date/timePositionNaut miles runAvg speedWind from/ knotsBaromVisibWave heightAir tempDewpointWater temp
2014-Nov-23 09:00S 60°42' W 045°30'0 0.0 985.9 -2.9 0.2
2014-Nov-23 08:00S 60°42' W 045°30'0 0.0 985.6 -3.4 0.2
2014-Nov-23 07:00S 60°42' W 045°30'0 0.0 985.6 -3.2-0.0
2014-Nov-23 06:00S 60°42' W 045°30'0 0.0 985.6 -3.4 0.2
2014-Nov-23 05:00S 60°42' W 045°30'3 0.4 985.7 -3.1-0.8
2014-Nov-22 21:00S 60°42' W 045°36'0 0.0 984.5 -3.3-0.4
2014-Nov-22 20:00S 60°42' W 045°36'0 0.0 984.4 -2.1-2.0
2014-Nov-22 18:00S 60°42' W 045°36'0 0.0 984.4 -3.2-1.8
2014-Nov-22 16:00S 60°42' W 045°36'0 0.0 983.5 -0.9-4.0
2014-Nov-22 15:00S 60°42' W 045°36'0 0.0 982.6 -4.1-0.4
2014-Nov-22 14:00S 60°42' W 045°36'0 0.0 982.0 -3.5-1.9
2014-Nov-22 13:00S 60°42' W 045°36'0 0.0 981.0 -3.1-2.0
2014-Nov-22 12:00S 60°42' W 045°36'0 0.0 980.2 -3.2 0.2
2014-Nov-22 11:00S 60°42' W 045°36'0 0.0 978.1 -2.3-0.2
2014-Nov-22 10:00S 60°42' W 045°36'3 1.5 975.7 -0.5-1.9
2014-Nov-22 08:00S 60°42' W 045°30'0 0.0 974.2 -0.1-2.8
2014-Nov-22 06:00S 60°42' W 045°30'0 0.0 973.7 -0.3-2.0
2014-Nov-22 05:00S 60°42' W 045°30'0 0.0 973.1 -0.3-2.1
2014-Nov-22 04:00S 60°42' W 045°30'0 0.0 972.9 -2.2
2014-Nov-22 03:00S 60°42' W 045°30'0 0.0 973.4 0.1-2.2
2014-Nov-22 02:00S 60°42' W 045°30'0 0.0 973.4 0.4-2.1
2014-Nov-22 01:00S 60°42' W 045°30'0 0.0 974.3 0.5-2.5
2014-Nov-22 00:00S 60°42' W 045°30'0 0.0 975.4 -0.5-0.7
2014-Nov-21 22:00S 60°42' W 045°30'3 2.9 976.3 -0.2-0.9
2014-Nov-21 21:00S 60°42' W 045°36'0 0.0 976.8 -0.2-0.8
2014-Nov-21 20:00S 60°42' W 045°36'0 0.0 977.1 -0.2-1.0
2014-Nov-21 19:00S 60°42' W 045°36'0 0.0 977.0 0.2-0.9
2014-Nov-21 18:00S 60°42' W 045°36'0 0.0 977.4 0.1-1.1
2014-Nov-21 17:00S 60°42' W 045°36'0 0.0 977.2 0.3-1.1
2014-Nov-21 16:00S 60°42' W 045°36'0 0.0 977.0 0.4-1.5
2014-Nov-21 12:00S 60°42' W 045°36'0 0.0 975.7 0.1-1.3
2014-Nov-21 11:00S 60°42' W 045°36'0 0.0 974.9 0.1-1.0
2014-Nov-21 10:00S 60°42' W 045°36'3 2.9 974.3 0.1-1.1
2014-Nov-21 09:00S 60°42' W 045°30'0 0.0 972.9 0.6-0.8
2014-Nov-21 08:00S 60°42' W 045°30'0 0.0 972.8 0.8-0.7
2014-Nov-21 07:00S 60°42' W 045°30'0 0.0 972.9 0.9-0.9
2014-Nov-21 06:00S 60°42' W 045°30'0 0.0 310 / 32972.8 1.1 0.9 -0.1
2014-Nov-21 05:00S 60°42' W 045°30'0 0.0 973.8 0.8-1.0
2014-Nov-21 03:00S 60°42' W 045°30'0 0.0 975.0 0.4-2.0
2014-Nov-21 02:00S 60°42' W 045°30'0 0.0 974.4 0.3-2.0
2014-Nov-21 01:00S 60°42' W 045°30'0 0.0 974.0 0.5-2.0
2014-Nov-21 00:00S 60°42' W 045°30'0 0.0 974.0 0.7-1.6
2014-Nov-20 23:00S 60°42' W 045°30'0 0.0 973.4 0.9-0.9
2014-Nov-20 20:00S 60°42' W 045°30'0 0.0 974.8 2.0-1.9
2014-Nov-20 19:00S 60°42' W 045°30'0 0.0 977.1 2.4-1.5
2014-Nov-20 18:00S 60°42' W 045°30'3 2.9 320 / 26979.6 1.1 1.8 1.3-0.1
2014-Nov-20 17:00S 60°42' W 045°36'0 0.0 981.6 2.1-1.3
2014-Nov-20 16:00S 60°42' W 045°36'0 0.0 984.5 1.5-1.7
2014-Nov-20 15:00S 60°42' W 045°36'0 0.0 986.0 1.0-2.1
2014-Nov-20 14:00S 60°42' W 045°36'0 0.0 987.0 0.7-2.8
2014-Nov-20 10:00S 60°42' W 045°36'3 2.9 989.6 -1.6-2.7
2014-Nov-20 09:00S 60°42' W 045°30'0 0.0 989.4 -1.8-2.9
2014-Nov-20 08:00S 60°42' W 045°30'0 0.0 989.3 -1.7-2.8
2014-Nov-20 07:00S 60°42' W 045°30'0 0.0 988.7 -2.2-1.8
2014-Nov-20 06:00S 60°42' W 045°30'0 0.0 290 / 30988.8 2.2 -1.8 -0.0
2014-Nov-20 05:00S 60°42' W 045°30'0 0.0 988.5 -2.1-1.4
2014-Nov-20 04:00S 60°42' W 045°30'0 0.0 988.4 -2.7-0.4
2014-Nov-20 02:00S 60°42' W 045°30'0 0.0 988.3 -2.0-3.0
2014-Nov-20 01:00S 60°42' W 045°30'0 0.0 987.9 -2.3-1.5
2014-Nov-19 23:00S 60°42' W 045°30'3 1.5 988.1 -3.0-1.8
2014-Nov-19 21:00S 60°42' W 045°36'0 0.0 988.0 -5.2-0.6
2014-Nov-19 20:00S 60°42' W 045°36'0 0.0 986.9 -5.6-0.7
2014-Nov-19 19:00S 60°42' W 045°36'3 2.9 985.3 -5.7-0.0
2014-Nov-19 18:00S 60°42' W 045°30'3 2.9 260 / 20984.410.8 -5.7-7.2 0.1
2014-Nov-19 17:00S 60°42' W 045°36'0 0.0 982.8 -5.2-0.1
2014-Nov-19 15:00S 60°42' W 045°36'3 2.9 980.3 -3.7-2.1
2014-Nov-19 14:00S 60°42' W 045°42'1110.6 980.0 -2.9-2.4
2014-Nov-19 13:00S 60°48' W 046°00'1514.6 979.1 -4.6-0.3
2014-Nov-19 12:00S 60°48' W 046°30'7 6.7 978.5 -5.1 0.5
2014-Nov-19 11:00S 60°42' W 046°36'16 7.9 977.8 -3.5-1.2
2014-Nov-19 09:00S 60°36' W 047°06'30 9.9 976.5 -2.7-0.9
2014-Nov-19 06:00S 60°18' W 047°54'2210.8 320 / 16974.7 5.4 0.5-1.4-0.0
2014-Nov-19 04:00S 60°06' W 048°30'2210.8 973.8 -0.2-3.5
2014-Nov-19 02:00S 59°54' W 049°06'1110.9 972.9 0.2-3.6
2014-Nov-19 01:00S 59°48' W 049°24'9 8.5 972.4 0.4-3.5
2014-Nov-19 00:00S 59°42' W 049°36'2412.2 971.6 0.3-2.9
2014-Nov-18 22:00S 59°30' W 050°18'1110.9 970.7 1.3-2.0
2014-Nov-18 21:00S 59°24' W 050°36'1111.0 970.2 2.4-1.1
2014-Nov-18 20:00S 59°18' W 050°54'2512.3 969.8 2.7-0.9
2014-Nov-18 18:00S 59°06' W 051°36'9 8.6 968.9 2.8-1.0
2014-Nov-18 17:00S 59°00' W 051°48'14 6.9 968.2 1.9-1.0
2014-Nov-18 15:00S 58°54' W 052°12'2613.0 968.2 4.3-0.2
2014-Nov-18 13:00S 58°36' W 052°48'1111.1 968.3 3.5-0.1
2014-Nov-18 12:00S 58°30' W 053°06'1111.2 968.6 3.9 0.4
2014-Nov-18 11:00S 58°24' W 053°24'1111.2 968.5 4.1 0.9
2014-Nov-18 10:00S 58°18' W 053°42'1111.2 968.5 3.8 1.0
2014-Nov-18 09:00S 58°12' W 054°00'1414.0 968.6 2.9 0.9
2014-Nov-18 08:00S 58°06' W 054°24'1111.3 968.9 3.5 1.2
2014-Nov-18 07:00S 58°00' W 054°42'1413.6 968.4 3.6 2.2
2014-Nov-18 06:00S 57°48' W 054°54'1414.1 330 / 18968.6 5.4 3.1 3.1 2.8
2014-Nov-18 05:00S 57°42' W 055°18'2612.8 969.4 2.5 1.2
2014-Nov-18 03:00S 57°30' W 056°00'1111.4 970.2 3.4 1.5
2014-Nov-18 02:00S 57°24' W 056°18'1515.4 970.8 3.8 1.7
2014-Nov-18 01:00S 57°12' W 056°36'1111.5 971.9 4.7 2.2
2014-Nov-18 00:00S 57°06' W 056°54'1111.5 972.7 5.2 2.9
2014-Nov-17 23:00S 57°00' W 057°12'1414.4 972.8 5.3 3.2
2014-Nov-17 22:00S 56°54' W 057°36'1211.5 973.6 5.7 3.5
2014-Nov-17 21:00S 56°48' W 057°54'12 5.8 974.7 5.7 3.4
2014-Nov-17 19:00S 56°42' W 058°12'6 6.0 975.2 6.2 3.5
2014-Nov-17 18:00S 56°36' W 058°12'1514.5 340 / 22976.310.8 6.0 4.4 4.6
2014-Nov-17 17:00S 56°30' W 058°36'1211.6 977.5 7.7 3.1
2014-Nov-17 16:00S 56°24' W 058°54'1211.6 978.2 8.4 3.2
2014-Nov-17 15:00S 56°18' W 059°12'1211.7 978.3 7.9 2.9
2014-Nov-17 14:00S 56°12' W 059°30'2512.3 978.6 7.2 2.5
2014-Nov-17 12:00S 55°54' W 060°00'2613.2 270 / 28978.910.8 7.8 4.1 5.7
2014-Nov-17 10:00S 55°42' W 060°42'1514.8 979.6 6.4 2.7
2014-Nov-17 09:00S 55°36' W 061°06'1615.7 980.0 6.5 3.5
2014-Nov-17 08:00S 55°24' W 061°24'1211.9 980.0 6.5 3.8
2014-Nov-17 07:00S 55°18' W 061°42'9 9.1 980.0 6.2 4.0
2014-Nov-17 06:00S 55°12' W 061°54'1515.0 330 / 21980.010.8 6.6 5.2 4.7
2014-Nov-17 05:00S 55°06' W 062°18'3015.0 981.3 7.9 4.0
2014-Nov-17 03:00S 54°48' W 063°00'2110.5 983.7 7.9 4.4
2014-Nov-17 01:00S 54°36' W 063°30'1615.9 986.7 8.4 4.9
2014-Nov-17 00:00S 54°24' W 063°48'1515.2 340 / 31987.9 5.4 8.1 4.2 7.1
2014-Nov-16 23:00S 54°18' W 064°12'1212.1 989.9 7.8 1.9
2014-Nov-16 22:00S 54°12' W 064°30'1212.1 991.4 8.2 2.3
2014-Nov-16 21:00S 54°06' W 064°48'1212.2 992.9 8.7 2.6
2014-Nov-16 20:00S 54°00' W 065°06'9 9.3 993.6 10.2 2.9
2014-Nov-16 19:00S 53°54' W 065°18'1413.9 995.4 10.6 2.6
2014-Nov-16 18:00S 53°42' W 065°30'1414.2 330 / 24996.310.8 9.1 6.5 7.3
2014-Nov-16 17:00S 53°42' W 065°54'1414.0 997.9 9.9 2.8
2014-Nov-16 16:00S 53°30' W 066°06'173 8.2 999.2 11.3 3.1
2014-Nov-15 19:00S 52°54' W 070°48'0 0.0 1008.5 9.3-4.0
2014-Nov-15 18:00S 52°54' W 070°48'0 0.0 1008.9 8.5-3.9
2014-Nov-15 17:00S 52°54' W 070°48'0 0.0 1009.1 8.8-4.0
2014-Nov-15 16:00S 52°54' W 070°48'0 0.0 1008.9 8.5-3.0
2014-Nov-15 14:00S 52°54' W 070°48'0 0.0 1008.2 7.4-3.1
2014-Nov-15 13:00S 52°54' W 070°48'7 7.0 1008.2 7.3-3.3
2014-Nov-15 12:00S 53°00' W 070°42'7 7.0 1007.1 5.5-2.8
2014-Nov-15 11:00S 53°06' W 070°48'7 3.5 1006.9 4.9-2.9
2014-Nov-15 09:00S 53°12' W 070°54'0 0.0 1006.1 3.6-4.6
2014-Nov-15 08:00S 53°12' W 070°54'0 0.0 1005.5 3.4-4.0
2014-Nov-15 07:00S 53°12' W 070°54'0 0.0 1004.9 3.4-2.6
2014-Nov-15 06:00S 53°12' W 070°54'0 0.0 1004.5 4.1-2.7
2014-Nov-15 03:00S 53°12' W 070°54'0 0.0 1002.8 4.7-2.3
2014-Nov-15 02:00S 53°12' W 070°54'0 0.0 1001.7 4.5-1.7
2014-Nov-15 01:00S 53°12' W 070°54'0 0.0 1000.4 4.9-0.9
2014-Nov-15 00:00S 53°12' W 070°54'0 0.0 998.8 5.6-1.5
2014-Nov-14 23:00S 53°12' W 070°54'0 0.0 997.1 6.5 0.2
2014-Nov-14 22:00S 53°12' W 070°54'0 0.0 995.6 8.1-0.8
2014-Nov-14 21:00S 53°12' W 070°54'0 0.0 994.1 9.6-3.4
2014-Nov-14 18:00S 53°12' W 070°54'0 0.0 992.0 9.3 2.8
2014-Nov-14 17:00S 53°12' W 070°54'0 0.0 991.3 8.5 3.2
2014-Nov-14 16:00S 53°12' W 070°54'0 0.0 989.7 9.7 2.4
2014-Nov-14 13:00S 53°12' W 070°54'0 0.0 987.9 8.9 3.0
2014-Nov-14 12:00S 53°12' W 070°54'0 0.0 987.8 8.5 3.3
2014-Nov-14 11:00S 53°12' W 070°54'0 0.0 987.1 8.4 4.0
2014-Nov-14 10:00S 53°12' W 070°54'0 0.0 986.2 8.1 4.6
2014-Nov-14 09:00S 53°12' W 070°54'0 0.0 985.9 6.5 4.6
2014-Nov-14 08:00S 53°12' W 070°54'0 0.0 985.8 6.2 4.7
2014-Nov-14 06:00S 53°12' W 070°54'0 0.0 984.1 9.2 5.8
2014-Nov-14 05:00S 53°12' W 070°54'0 0.0 983.9 9.0 5.6
2014-Nov-14 04:00S 53°12' W 070°54'0 0.0 983.7 9.4 5.4
2014-Nov-14 03:00S 53°12' W 070°54'0 0.0 983.7 8.9 5.2
2014-Nov-14 01:00S 53°12' W 070°54'0 0.0 983.9 8.2 4.8
2014-Nov-14 00:00S 53°12' W 070°54'0 0.0 985.4 9.6 4.8
2014-Nov-13 23:00S 53°12' W 070°54'0 0.0 986.4 9.7 4.8
2014-Nov-13 22:00S 53°12' W 070°54'0 0.0 987.5 11.4 6.0
2014-Nov-13 21:00S 53°12' W 070°54'0 0.0 988.8 10.5 5.5
2014-Nov-13 20:00S 53°12' W 070°54'0 0.0 989.2 12.5 4.2
2014-Nov-13 19:00S 53°12' W 070°54'0 0.0 989.5 12.7 3.8
2014-Nov-13 18:00S 53°12' W 070°54'0 0.0 989.5 13.4 3.6
2014-Nov-13 16:00S 53°12' W 070°54'0 0.0 990.6 12.1 3.5
2014-Nov-13 15:00S 53°12' W 070°54'0 0.0 990.7 12.0 3.7
2014-Nov-13 14:00S 53°12' W 070°54'0 0.0 990.4 11.5 4.1
2014-Nov-13 13:00S 53°12' W 070°54'0 0.0 990.5 10.7 4.3
2014-Nov-13 12:00S 53°12' W 070°54'0 0.0 990.3 10.6 4.6
2014-Nov-13 10:00S 53°12' W 070°54'0 0.0 989.7 8.6 4.0
2014-Nov-13 09:00S 53°12' W 070°54'   989.5 7.9 4.1

Dump ship's entire track history